createdAt,value
2023-02-11T00:01:36.212Z,-0.38
2023-02-11T00:04:06.675Z,-0.30
2023-02-11T00:06:39.268Z,-0.15
2023-02-11T00:09:07.780Z,-0.22
2023-02-11T00:11:35.871Z,-0.25
2023-02-11T00:14:09.501Z,-0.10
2023-02-11T00:16:37.283Z,-0.06
2023-02-11T00:19:06.500Z,-0.40
2023-02-11T00:21:36.059Z,-0.79
2023-02-11T00:24:06.196Z,-0.48
2023-02-11T00:26:36.560Z,0.16
2023-02-11T00:29:05.976Z,-0.24
2023-02-11T00:31:35.007Z,-0.52
2023-02-11T00:34:03.154Z,-0.38
2023-02-11T00:36:31.630Z,-0.03
2023-02-11T00:39:00.463Z,0.12
2023-02-11T00:41:29.370Z,0.22
2023-02-11T00:43:59.132Z,0.18
2023-02-11T00:46:26.535Z,0.54
2023-02-11T00:48:57.614Z,0.54
2023-02-11T00:51:27.861Z,0.16
2023-02-11T00:53:55.547Z,0.07
2023-02-11T00:56:23.950Z,-0.22
2023-02-11T00:58:51.626Z,-0.21
2023-02-11T01:01:20.584Z,-0.61
2023-02-11T01:03:51.340Z,-0.57
2023-02-11T01:06:20.065Z,-0.55
2023-02-11T01:08:47.912Z,-0.51
2023-02-11T01:11:21.228Z,-0.58
2023-02-11T01:13:53.391Z,-0.53
2023-02-11T01:16:22.966Z,-0.44
2023-02-11T01:18:53.786Z,-0.58
2023-02-11T01:21:21.291Z,-0.69
2023-02-11T01:23:52.490Z,-0.75
2023-02-11T01:26:20.789Z,-0.84
2023-02-11T01:28:48.868Z,-0.91
2023-02-11T01:31:19.363Z,-0.72
2023-02-11T01:33:46.882Z,-0.82
2023-02-11T01:36:14.802Z,-1.04
2023-02-11T01:38:44.446Z,-1.01
2023-02-11T01:41:15.242Z,-1.07
2023-02-11T01:43:49.858Z,-1.08
2023-02-11T01:46:50.042Z,-1.33
2023-02-11T01:49:36.629Z,-1.63
2023-02-11T01:52:20.431Z,-1.62
2023-02-11T01:55:18.063Z,-1.60
2023-02-11T01:57:52.742Z,-1.39
2023-02-11T02:00:33.514Z,-1.11
2023-02-11T02:03:14.749Z,-0.95
2023-02-11T02:06:36.315Z,-0.98
2023-02-11T02:09:18.939Z,-1.18
2023-02-11T02:11:46.353Z,-1.06
2023-02-11T02:14:17.476Z,-1.03
2023-02-11T02:16:46.698Z,-0.93
2023-02-11T02:20:15.043Z,-0.99
2023-02-11T02:22:59.651Z,-1.03
2023-02-11T02:26:19.995Z,-1.24
2023-02-11T02:29:46.545Z,-1.14
2023-02-11T02:32:43.537Z,-1.36
2023-02-11T02:35:38.363Z,-1.06
2023-02-11T02:38:17.262Z,-0.98
2023-02-11T02:41:02.728Z,-0.71
2023-02-11T02:43:31.589Z,-0.32
2023-02-11T02:46:15.044Z,-0.25
2023-02-11T02:48:43.266Z,-0.26
2023-02-11T02:51:52.744Z,-0.30
2023-02-11T02:55:00.159Z,-0.42
2023-02-11T02:57:59.379Z,-0.22
2023-02-11T03:01:18.960Z,0.03
2023-02-11T03:04:12.329Z,-0.41
2023-02-11T03:07:22.834Z,-0.36
2023-02-11T03:10:19.342Z,-0.62
2023-02-11T03:12:48.815Z,-0.72
2023-02-11T03:15:21.574Z,-0.69
2023-02-11T03:17:53.502Z,-0.70
2023-02-11T03:20:24.080Z,-0.52
2023-02-11T03:23:03.789Z,-0.35
2023-02-11T03:25:42.413Z,-0.10
2023-02-11T03:28:31.032Z,-0.13
2023-02-11T03:31:48.237Z,-0.01
2023-02-11T03:34:42.691Z,-0.08
2023-02-11T03:37:36.412Z,0.05
2023-02-11T03:40:12.731Z,0.16
2023-02-11T03:43:05.453Z,0.18
2023-02-11T03:45:33.588Z,0.51
2023-02-11T03:48:13.248Z,0.79
2023-02-11T03:50:45.101Z,1.02
2023-02-11T03:53:16.390Z,0.85
2023-02-11T03:55:47.543Z,0.61
2023-02-11T03:58:15.298Z,0.86
2023-02-11T04:00:46.400Z,0.96
2023-02-11T04:03:14.585Z,1.17
2023-02-11T04:05:44.798Z,1.01
2023-02-11T04:08:12.456Z,0.93
2023-02-11T04:10:41.457Z,1.03
2023-02-11T04:13:08.934Z,1.11
2023-02-11T04:15:36.475Z,1.15
2023-02-11T04:18:07.551Z,0.92
2023-02-11T04:20:35.080Z,0.80
2023-02-11T04:23:02.447Z,0.70
2023-02-11T04:25:29.841Z,0.92
2023-02-11T04:27:57.387Z,1.00
2023-02-11T04:30:25.942Z,1.20
2023-02-11T04:32:54.620Z,1.26
2023-02-11T04:35:22.528Z,1.23
2023-02-11T04:37:50.393Z,1.34
2023-02-11T04:40:18.021Z,1.34
2023-02-11T04:42:45.312Z,1.51
2023-02-11T04:45:12.571Z,1.84
2023-02-11T04:47:39.982Z,1.89
2023-02-11T04:50:07.702Z,1.97
2023-02-11T04:52:35.044Z,1.94
2023-02-11T04:55:02.429Z,1.95
2023-02-11T04:57:30.132Z,1.98
2023-02-11T04:59:57.680Z,1.88
2023-02-11T05:02:25.370Z,1.80
2023-02-11T05:04:53.199Z,1.47
2023-02-11T05:07:20.987Z,1.45
2023-02-11T05:09:48.356Z,1.11
2023-02-11T05:12:15.767Z,1.14
2023-02-11T05:14:43.225Z,1.12
2023-02-11T05:17:10.741Z,1.49
2023-02-11T05:19:38.219Z,1.76
2023-02-11T05:22:05.604Z,1.95
2023-02-11T05:24:33.335Z,2.03
2023-02-11T05:27:01.847Z,2.21
2023-02-11T05:29:29.249Z,2.22
2023-02-11T05:31:56.599Z,2.07
2023-02-11T05:34:24.008Z,2.02
2023-02-11T05:37:17.503Z,2.05
2023-02-11T05:39:45.027Z,2.14
2023-02-11T05:42:12.375Z,1.97
2023-02-11T05:44:39.911Z,2.13
2023-02-11T05:47:08.999Z,2.20
2023-02-11T05:49:36.338Z,2.54
2023-02-11T05:52:04.418Z,2.64
2023-02-11T05:54:32.204Z,2.53
2023-02-11T05:57:01.961Z,2.46
2023-02-11T05:59:29.780Z,2.43
2023-02-11T06:02:00.122Z,2.54
2023-02-11T06:04:28.207Z,2.61
2023-02-11T06:06:55.980Z,2.59
2023-02-11T06:09:26.587Z,2.77
2023-02-11T06:11:54.186Z,2.70
2023-02-11T06:14:22.018Z,2.78
2023-02-11T06:16:49.478Z,2.70
2023-02-11T06:19:17.015Z,2.77
2023-02-11T06:21:44.746Z,2.80
2023-02-11T06:24:13.021Z,2.53
2023-02-11T06:26:40.724Z,2.70
2023-02-11T06:29:08.690Z,2.68
2023-02-11T06:31:39.211Z,2.66
2023-02-11T06:34:08.729Z,2.78
2023-02-11T06:36:39.172Z,2.91
2023-02-11T06:39:14.823Z,2.75
2023-02-11T06:41:44.342Z,2.71
2023-02-11T06:44:11.934Z,3.03
2023-02-11T06:46:39.337Z,2.85
2023-02-11T06:49:06.976Z,2.82
2023-02-11T06:51:34.370Z,2.63
2023-02-11T06:54:01.950Z,2.76
2023-02-11T06:56:30.542Z,2.72
2023-02-11T06:59:01.509Z,2.78
2023-02-11T07:01:29.697Z,2.89
2023-02-11T07:03:57.590Z,2.94
2023-02-11T07:06:28.300Z,2.73
2023-02-11T07:08:58.167Z,3.00
2023-02-11T07:11:29.736Z,3.17
2023-02-11T07:14:08.611Z,3.47
2023-02-11T07:16:39.373Z,3.37
2023-02-11T07:19:07.606Z,3.44
2023-02-11T07:21:38.119Z,3.13
2023-02-11T07:24:11.625Z,3.26
2023-02-11T07:26:42.793Z,3.51
2023-02-11T07:29:12.098Z,3.61
2023-02-11T07:31:47.094Z,4.00
2023-02-11T07:34:14.873Z,4.26
2023-02-11T07:36:43.859Z,4.43
2023-02-11T07:39:13.712Z,4.52
2023-02-11T07:41:41.004Z,4.75
2023-02-11T07:44:08.663Z,4.75
2023-02-11T07:46:36.040Z,5.20
2023-02-11T07:49:03.689Z,5.17
2023-02-11T07:51:31.838Z,5.20
2023-02-11T07:54:01.058Z,5.65
2023-02-11T07:56:30.635Z,5.73
2023-02-11T07:59:03.718Z,5.78
2023-02-11T08:01:31.777Z,5.83
2023-02-11T08:04:02.686Z,5.69
2023-02-11T08:06:35.243Z,5.39
2023-02-11T08:09:09.652Z,5.42
2023-02-11T08:11:36.984Z,5.77
2023-02-11T08:14:11.095Z,5.96
2023-02-11T08:16:39.359Z,5.99
2023-02-11T08:19:13.367Z,6.07
2023-02-11T08:21:42.399Z,6.69
2023-02-11T08:24:11.142Z,7.09
2023-02-11T08:26:38.663Z,7.16
2023-02-11T08:29:13.593Z,7.23
2023-02-11T08:31:47.023Z,7.75
2023-02-11T08:34:19.061Z,8.24
2023-02-11T08:36:54.095Z,8.60
2023-02-11T08:39:23.390Z,8.80
2023-02-11T08:41:56.755Z,8.63
2023-02-11T08:44:25.252Z,8.57
2023-02-11T08:46:53.753Z,8.40
2023-02-11T08:49:22.196Z,7.92
2023-02-11T08:51:50.294Z,7.80
2023-02-11T08:54:18.294Z,9.27
2023-02-11T08:56:48.953Z,10.71
2023-02-11T08:59:17.916Z,11.48
2023-02-11T09:01:47.367Z,13.02
2023-02-11T09:04:15.397Z,15.39
2023-02-11T09:06:48.051Z,16.65
2023-02-11T09:09:18.220Z,16.79
2023-02-11T09:11:46.246Z,18.47
2023-02-11T09:14:21.918Z,19.72
2023-02-11T09:16:50.858Z,19.92
2023-02-11T09:19:23.266Z,20.53
2023-02-11T09:21:51.361Z,19.98
2023-02-11T09:24:19.696Z,20.28
2023-02-11T09:26:49.972Z,20.35
2023-02-11T09:29:23.841Z,21.30
2023-02-11T09:32:17.348Z,21.87
2023-02-11T09:34:47.792Z,22.13
2023-02-11T09:37:18.448Z,23.35
2023-02-11T09:39:46.831Z,24.29
2023-02-11T09:42:31.519Z,25.11
2023-02-11T09:45:02.605Z,25.60
2023-02-11T09:47:41.507Z,25.21
2023-02-11T09:50:22.139Z,24.93
2023-02-11T09:53:20.976Z,23.92
2023-02-11T09:56:01.591Z,23.05
2023-02-11T09:58:36.142Z,23.19
2023-02-11T10:01:31.076Z,23.13
2023-02-11T10:05:09.969Z,24.05
2023-02-11T10:08:21.016Z,24.97
2023-02-11T10:10:53.310Z,24.32
2023-02-11T10:13:44.119Z,24.47
2023-02-11T10:17:17.821Z,24.47
2023-02-11T10:20:39.178Z,23.45
2023-02-11T10:23:39.587Z,24.93
2023-02-11T10:26:21.493Z,26.18
2023-02-11T10:29:00.507Z,27.08
2023-02-11T10:31:40.553Z,27.37
2023-02-11T10:34:17.287Z,26.60
2023-02-11T10:36:45.863Z,27.91
2023-02-11T10:39:24.501Z,28.69
2023-02-11T10:42:00.877Z,28.41
2023-02-11T10:44:40.932Z,28.75
2023-02-11T10:48:04.557Z,29.55
2023-02-11T10:50:50.815Z,28.83
2023-02-11T10:53:27.352Z,28.95
2023-02-11T10:56:00.326Z,28.38
2023-02-11T10:59:30.952Z,27.93
2023-02-11T11:02:25.015Z,27.73
2023-02-11T11:04:59.323Z,28.32
2023-02-11T11:07:32.224Z,29.61
2023-02-11T11:10:35.582Z,30.04
2023-02-11T11:13:30.060Z,29.35
2023-02-11T11:16:35.937Z,28.94
2023-02-11T11:20:10.727Z,28.47
2023-02-11T11:23:11.331Z,28.16
2023-02-11T11:26:13.268Z,27.22
2023-02-11T11:29:09.672Z,28.15
2023-02-11T11:32:06.674Z,27.27
2023-02-11T11:34:39.727Z,25.59
2023-02-11T11:37:25.627Z,25.97
2023-02-11T11:40:34.671Z,25.63
2023-02-11T11:43:14.364Z,26.05
2023-02-11T11:46:25.895Z,26.36
2023-02-11T11:49:16.558Z,27.25
2023-02-11T11:52:45.535Z,27.33
2023-02-11T11:55:58.708Z,28.45
2023-02-11T11:58:30.776Z,27.94
2023-02-11T12:01:42.339Z,27.04
2023-02-11T12:04:24.341Z,27.36
2023-02-11T12:07:12.859Z,27.39
2023-02-11T12:10:41.938Z,27.29
2023-02-11T12:13:52.656Z,27.30
2023-02-11T12:16:45.505Z,26.93
2023-02-11T12:19:18.652Z,26.33
2023-02-11T12:22:27.109Z,25.01
2023-02-11T12:25:30.304Z,25.55
2023-02-11T12:28:35.285Z,26.09
2023-02-11T12:31:26.848Z,25.10
2023-02-11T12:34:47.290Z,23.72
2023-02-11T12:37:46.462Z,22.14
2023-02-11T12:40:58.800Z,21.21
2023-02-11T12:43:39.992Z,20.59
2023-02-11T12:47:11.698Z,20.83
2023-02-11T12:50:30.666Z,20.51
2023-02-11T12:53:23.010Z,19.56
2023-02-11T12:56:02.554Z,18.05
2023-02-11T12:59:51.078Z,18.66
2023-02-11T13:02:35.424Z,17.59
2023-02-11T13:05:32.412Z,16.85
2023-02-11T13:08:32.171Z,15.81
2023-02-11T13:11:14.351Z,15.51
2023-02-11T13:14:10.185Z,15.78
2023-02-11T13:16:48.634Z,15.79
2023-02-11T13:19:37.014Z,16.32
2023-02-11T13:22:31.581Z,17.08
2023-02-11T13:25:42.432Z,15.97
2023-02-11T13:28:40.845Z,15.87
2023-02-11T13:31:13.593Z,16.77
2023-02-11T13:33:44.694Z,16.98
2023-02-11T13:36:22.427Z,17.49
2023-02-11T13:48:27.478Z,18.85
2023-02-11T13:52:01.917Z,18.48
2023-02-11T13:55:27.802Z,18.16
2023-02-11T14:04:33.401Z,17.14
2023-02-11T14:18:47.042Z,15.28
2023-02-11T14:21:29.585Z,15.12
2023-02-11T14:24:02.522Z,15.16
2023-02-11T14:26:55.126Z,15.26
2023-02-11T14:29:40.821Z,15.25
2023-02-11T14:32:38.809Z,15.18
2023-02-11T14:35:29.514Z,15.17
2023-02-11T14:38:23.800Z,15.05
2023-02-11T14:41:20.825Z,14.96
2023-02-11T14:44:02.268Z,15.16
2023-02-11T14:46:30.788Z,14.88
2023-02-11T14:49:03.720Z,15.32
2023-02-11T14:51:41.361Z,15.53
2023-02-11T14:54:24.019Z,15.27
2023-02-11T14:57:18.165Z,15.82
2023-02-11T14:59:59.478Z,15.78
2023-02-11T15:02:38.956Z,15.35
2023-02-11T15:05:29.049Z,15.48
2023-02-11T15:08:00.773Z,14.89
2023-02-11T15:10:44.337Z,14.61
2023-02-11T15:13:27.171Z,14.65
2023-02-11T15:16:25.143Z,14.62
2023-02-11T15:19:01.771Z,14.55
2023-02-11T15:21:34.732Z,14.44
2023-02-11T15:24:28.650Z,14.35
2023-02-11T15:27:12.723Z,14.34
2023-02-11T15:29:46.548Z,13.87
2023-02-11T15:32:25.632Z,13.56
2023-02-11T15:34:56.809Z,13.65
2023-02-11T15:37:32.387Z,13.83
2023-02-11T15:40:23.139Z,13.56
2023-02-11T15:43:09.884Z,13.46
2023-02-11T15:45:45.312Z,13.90
2023-02-11T15:48:38.568Z,13.83
2023-02-11T15:51:35.516Z,13.52
2023-02-11T15:54:16.752Z,13.60
2023-02-11T15:57:03.583Z,13.18
2023-02-11T15:59:46.381Z,12.67
2023-02-11T16:02:31.004Z,12.55
2023-02-11T16:05:09.752Z,12.40
2023-02-11T16:07:50.978Z,12.35
2023-02-11T16:10:35.237Z,12.16
2023-02-11T16:13:08.327Z,12.07
2023-02-11T16:15:38.324Z,11.90
2023-02-11T16:18:38.269Z,11.80
2023-02-11T16:21:18.317Z,11.77
2023-02-11T16:23:58.242Z,11.60
2023-02-11T16:26:50.555Z,11.00
2023-02-11T16:29:28.053Z,10.39
2023-02-11T16:32:23.752Z,10.77
2023-02-11T16:35:00.980Z,11.19
2023-02-11T16:37:28.728Z,11.13
2023-02-11T16:39:59.093Z,10.86
2023-02-11T16:42:26.444Z,10.73
2023-02-11T16:44:53.957Z,11.22
2023-02-11T16:47:28.080Z,11.37
2023-02-11T16:49:57.176Z,11.33
2023-02-11T16:52:25.675Z,11.55
2023-02-11T16:54:53.608Z,11.71
2023-02-11T16:57:26.931Z,11.47
2023-02-11T16:59:55.672Z,11.39
2023-02-11T17:02:30.842Z,11.37
2023-02-11T17:05:03.004Z,11.55
2023-02-11T17:07:30.989Z,11.27
2023-02-11T17:09:58.568Z,11.12
2023-02-11T17:12:26.124Z,11.11
2023-02-11T17:14:54.463Z,11.19
2023-02-11T17:17:24.752Z,11.25
2023-02-11T17:19:51.975Z,11.18
2023-02-11T17:22:19.382Z,11.28
2023-02-11T17:24:46.531Z,11.11
2023-02-11T17:27:14.027Z,11.30
2023-02-11T17:29:41.670Z,11.40
2023-02-11T17:32:09.477Z,11.43
2023-02-11T17:34:36.964Z,11.13
2023-02-11T17:37:09.688Z,11.34
2023-02-11T17:39:40.501Z,11.44
2023-02-11T17:42:11.720Z,11.39
2023-02-11T17:44:39.058Z,11.39
2023-02-11T17:47:06.500Z,11.35
2023-02-11T17:49:33.986Z,11.15
2023-02-11T17:52:01.506Z,11.41
2023-02-11T17:54:28.948Z,11.27
2023-02-11T17:56:58.309Z,11.05
2023-02-11T17:59:26.512Z,11.33
2023-02-11T18:01:54.074Z,11.35
2023-02-11T18:04:25.011Z,11.25
2023-02-11T18:06:58.908Z,11.23
2023-02-11T18:09:27.167Z,11.33
2023-02-11T18:11:55.368Z,11.47
2023-02-11T18:14:32.442Z,11.54
2023-02-11T18:17:00.286Z,11.71
2023-02-11T18:19:30.617Z,11.84
2023-02-11T18:22:01.065Z,11.67
2023-02-11T18:24:28.951Z,11.56
2023-02-11T18:27:01.377Z,11.57
2023-02-11T18:29:29.711Z,11.48
2023-02-11T18:31:58.060Z,11.49
2023-02-11T18:34:26.328Z,11.47
2023-02-11T18:36:54.194Z,11.36
2023-02-11T18:39:24.374Z,11.37
2023-02-11T18:41:54.647Z,11.34
2023-02-11T18:44:24.022Z,11.07
2023-02-11T18:46:52.937Z,11.23
2023-02-11T18:49:21.182Z,11.31
2023-02-11T18:51:52.215Z,11.26
2023-02-11T18:54:22.455Z,11.17
2023-02-11T18:56:50.063Z,11.31
2023-02-11T18:59:17.282Z,11.55
2023-02-11T19:01:46.922Z,11.51
2023-02-11T19:04:19.668Z,11.43
2023-02-11T19:06:51.625Z,11.52
2023-02-11T19:09:23.049Z,11.13
2023-02-11T19:11:50.900Z,11.21
2023-02-11T19:14:25.812Z,11.26
2023-02-11T19:16:59.587Z,11.44
2023-02-11T19:19:35.494Z,11.45
2023-02-11T19:22:08.573Z,11.26
2023-02-11T19:24:39.553Z,11.14
2023-02-11T19:27:06.984Z,11.02
2023-02-11T19:29:35.209Z,10.69
2023-02-11T19:32:07.048Z,10.56
2023-02-11T19:34:43.323Z,10.71
2023-02-11T19:37:15.506Z,10.70
2023-02-11T19:39:44.414Z,10.69
2023-02-11T19:42:13.079Z,10.66
2023-02-11T19:44:40.306Z,10.58
2023-02-11T19:47:07.900Z,10.53
2023-02-11T19:49:35.722Z,10.44
2023-02-11T19:52:03.661Z,10.29
2023-02-11T19:54:31.089Z,9.94
2023-02-11T19:56:58.955Z,9.97
2023-02-11T19:59:26.888Z,10.16
2023-02-11T20:01:54.501Z,10.52
2023-02-11T20:04:22.091Z,10.47
2023-02-11T20:06:49.511Z,10.70
2023-02-11T20:09:17.038Z,10.40
2023-02-11T20:11:44.783Z,10.23
2023-02-11T20:14:16.993Z,10.21
2023-02-11T20:16:49.005Z,10.27
2023-02-11T20:19:21.916Z,10.34
2023-02-11T20:21:55.815Z,10.42
2023-02-11T20:24:25.246Z,10.38
2023-02-11T20:26:57.124Z,10.30
2023-02-11T20:29:25.863Z,10.22
2023-02-11T20:31:54.716Z,10.14
2023-02-11T20:34:22.443Z,9.97
2023-02-11T20:36:53.096Z,10.06
2023-02-11T20:39:23.693Z,10.36
2023-02-11T20:41:57.641Z,10.27
2023-02-11T20:44:27.397Z,10.21
2023-02-11T20:46:57.945Z,10.14
2023-02-11T20:49:26.892Z,10.03
2023-02-11T20:51:55.570Z,10.04
2023-02-11T20:54:24.416Z,10.02
2023-02-11T20:56:54.078Z,9.90
2023-02-11T20:59:21.432Z,9.70
2023-02-11T21:01:56.033Z,9.63
2023-02-11T21:04:35.793Z,9.58
2023-02-11T21:07:03.166Z,9.60
2023-02-11T21:09:33.284Z,9.41
2023-02-11T21:12:02.321Z,9.45
2023-02-11T21:14:31.195Z,9.58
2023-02-11T21:17:04.159Z,9.71
2023-02-11T21:19:31.394Z,9.75
2023-02-11T21:22:00.615Z,9.90
2023-02-11T21:24:28.218Z,9.99
2023-02-11T21:26:56.284Z,9.99
2023-02-11T21:29:23.569Z,9.91
2023-02-11T21:31:51.446Z,9.88
2023-02-11T21:34:20.797Z,9.79
2023-02-11T21:36:51.148Z,9.77
2023-02-11T21:39:20.248Z,9.93
2023-02-11T21:41:47.827Z,10.00
2023-02-11T21:44:15.321Z,9.71
2023-02-11T21:46:42.645Z,9.88
2023-02-11T21:49:10.198Z,10.02
2023-02-11T21:51:37.471Z,10.34
2023-02-11T21:54:05.144Z,10.20
2023-02-11T21:56:35.121Z,10.13
2023-02-11T21:59:02.564Z,9.98
2023-02-11T22:01:35.559Z,9.81
2023-02-11T22:04:03.851Z,9.87
2023-02-11T22:06:37.480Z,9.84
2023-02-11T22:09:11.144Z,9.74
2023-02-11T22:11:38.723Z,9.47
2023-02-11T22:14:06.404Z,9.46
2023-02-11T22:16:33.748Z,9.37
2023-02-11T22:19:02.560Z,9.39
2023-02-11T22:21:30.422Z,9.49
2023-02-11T22:24:00.346Z,9.53
2023-02-11T22:26:28.505Z,9.57
2023-02-11T22:28:57.531Z,9.56
2023-02-11T22:31:33.458Z,10.02
2023-02-11T22:34:04.699Z,9.81
2023-02-11T22:36:40.402Z,9.48
2023-02-11T22:39:14.459Z,9.41
2023-02-11T22:44:14.077Z,9.71
2023-02-11T22:46:41.282Z,9.79
2023-02-11T22:49:10.343Z,9.85
2023-02-11T22:51:39.932Z,9.85
2023-02-11T22:54:14.673Z,9.89
2023-02-11T22:56:42.944Z,9.87
2023-02-11T22:59:15.405Z,9.82
2023-02-11T23:01:43.568Z,9.82
2023-02-11T23:04:16.084Z,9.79
2023-02-11T23:09:14.902Z,9.44
2023-02-11T23:11:42.885Z,9.58
2023-02-11T23:14:12.175Z,9.51
2023-02-11T23:16:40.099Z,9.53
2023-02-11T23:19:10.399Z,9.90
2023-02-11T23:21:39.943Z,10.06
2023-02-11T23:24:17.292Z,9.83
2023-02-11T23:26:45.172Z,9.75
2023-02-11T23:29:13.109Z,9.55
2023-02-11T23:31:45.213Z,9.50
2023-02-11T23:34:17.211Z,9.57
2023-02-11T23:36:44.720Z,9.47
2023-02-11T23:39:15.922Z,9.35
2023-02-11T23:41:43.436Z,9.44
2023-02-11T23:44:11.939Z,9.40
2023-02-11T23:46:39.500Z,9.35
2023-02-11T23:49:10.302Z,9.37
2023-02-11T23:51:37.581Z,9.58
2023-02-11T23:54:04.921Z,9.52
2023-02-11T23:56:32.337Z,9.85
2023-02-11T23:58:59.756Z,9.49
